Airfield :
LOGIN :

Register | Disclaimer

   EN    FR    IT 

 










Legend :    VFR   Marginal VFR   IFR   Intensive IFR   Very Intensive IFR
Visi :
Ceiling :
>= 8 km
>= 3000ft
5 to 8 km
1000 to 3000 ft
1500m to 5 km
500 to 1000 ft
800 to 1500m
200 to 500 ft
< 800m
< 200 ft
Symbols :   Thunderstorms  Fog  Heavy snow  Heavy precipitations  Wind > 20 kt
SIGMETs :     Misc.  Thunderstorms  Icing  Turbulence  Mountain Waves  Volcanic Ashes






- Airport Elevation : 146 ft
- IATA code : RKE


EKRK - Roskilde Tune

CURRENT METAR :
  • 150420Z AUTO 36004KT 9999 BKN180/// 00/M01 Q1030

EXPIRED METARs :
  • 150350Z AUTO 34003KT 9999 BKN190/// 00/M01 Q1030
  • 150320Z AUTO 34004KT 9999 BKN210/// M00/M02 Q1030
  • 150250Z AUTO 35004KT 9999 BKN082/// BKN220/// 01/M01 Q1030
  • 150220Z AUTO 36004KT 9999 BKN085/// 01/M01 Q1030
  • 150150Z AUTO 36004KT 9999 BKN086/// 02/M00 Q1030

TAF TAF EKRK
Valid from the 15 at 03:00 until the 15 at 12:00 UTC


150201Z 1503/1512 01002KT CAVOK
BECMG 1506/1509 04012KT



MET'MAP, your aeronautical weather chart ! - Copyright ORBIFLY December 2007 - Disclaimer

ORBIFLY MET'MAP TEAM :

Programming & Development : Alexandra Zaïnal
Concept & original design : Baudouin d'Aumeries
Assistance for programming : Marc-Olivier Méhu
Technical & hardware support : Manuel Goepfert

Contact : metmap@orbifly.com




SOURCES & CREDITS :

   NOAA